• Join FlightAware (Why Join?)
  • Login
  • US Flag 
04:03AM EDT


 

Airport Tracker/Info


-or-


 

Live Flight TrackerFlight Track Log ✈ N427JS ✈ 03-May-2013 ✈ KOPF - KTUP

Flight Track Log - Related Links

Times and Time Zones

All times are in EDT time to prevent confusion due to time zone crossing. See the N427JS flight status page for this flight to view local times or setup timezone preferences in your user account.

Time Position Orientation Groundspeed Altitude Reporting Facility
EDT Latitude Longitude Course Direction KTS MPH feet Rate Location/Type
04:20PM 25.9064 -80.2914 297° West 119 137 200  Level Miami Center
04:21PM 25.9361 -80.3569 297° West 199 229 2,400 1,860 Climbing Miami Center
04:22PM 25.9578 -80.4153 292° West 191 220 4,600 2,040 Climbing Miami Center
04:22PM 25.9678 -80.4272 313° West 186 214 5,200 1,860 Climbing Miami Center
04:23PM 25.9772 -80.4736 283° West 191 220 6,700 1,920 Climbing Miami Center
04:24PM 25.9947 -80.5206 293° West 199 229 8,300 1,860 Climbing Miami Center
04:24PM 26.0069 -80.5417 303° West 201 231 9,000 2,220 Climbing Miami Center
04:25PM 26.0142 -80.5789 282° West 196 226 10,600 2,100 Climbing Miami Center
04:25PM 26.0283 -80.5978 310° West 189 217 11,100 1,740 Climbing Miami Center
04:26PM 26.0381 -80.6303 288° West 201 231 12,200 1,680 Climbing Miami Center
04:26PM 26.0500 -80.6517 302° West 197 227 12,800 1,380 Climbing Miami Center
04:27PM 26.0528 -80.7072 273° West 202 232 14,300 1,260 Climbing Miami Center
04:28PM 26.0956 -80.7478 320° Northwest 184 212 15,400 1,080 Climbing Miami Center
04:29PM 26.1489 -80.7819 330° Northwest 194 223 16,500 1,140 Climbing Miami Center
04:30PM 26.2044 -80.8161 331° Northwest 214 246 17,700 1,260 Climbing Miami Center
04:31PM 26.2514 -80.8525 325° Northwest 214 246 19,100 1,140 Climbing Miami Center
04:32PM 26.2986 -80.8819 331° Northwest 209 241 20,000 900 Climbing Miami Center
04:33PM 26.3561 -80.9208 329° Northwest 209 241 21,000 780 Climbing Miami Center
04:34PM 26.4053 -80.9528 330° Northwest 215 247 21,800 840 Climbing Miami Center
04:35PM 26.4686 -80.9967 328° Northwest 222 255 22,900 960 Climbing Miami Center
04:36PM 26.5242 -81.0311 331° Northwest 222 255 23,800 780 Climbing Miami Center
04:37PM 26.5775 -81.0656 330° Northwest 217 250 24,500 720 Climbing Miami Center
04:38PM 26.6347 -81.1025 330° Northwest 222 255 25,300 780 Climbing Miami Center
04:39PM 26.6839 -81.1344 330° Northwest 216 249 26,100 720 Climbing Miami Center
04:40PM 26.7331 -81.1689 328° Northwest 211 243 26,800 480 Climbing Miami Center
04:41PM 26.7803 -81.1986 331° Northwest 205 236 27,100 480 Climbing Miami Center
04:42PM 26.8314 -81.2375 326° Northwest 205 236 27,800 420 Climbing Miami Center
04:43PM 26.8886 -81.2725 331° Northwest 215 247 28,000 180 Climbing Miami Center
04:44PM 26.9458 -81.3164 326° Northwest 233 268 28,200 540 Climbing Miami Center
04:45PM 27.0053 -81.3536 331° Northwest 238 274 29,100 600 Climbing Miami Center
04:46PM 27.0667 -81.3911 331° Northwest 249 287 29,500 420 Climbing Miami Center
04:47PM 27.1239 -81.4283 330° Northwest 244 281 30,000 240 Climbing Miami Center
04:48PM 27.1892 -81.4753 327° Northwest 249 287 30,000  Level Miami Center
04:49PM 27.2483 -81.5219 325° Northwest 249 287 30,000  Level Miami Center
04:50PM 27.2986 -81.5778 315° West 256 295 30,000  Level Miami Center
04:51PM 27.3469 -81.6311 316° Northwest 262 302 30,000  Level Miami Center
04:52PM 27.4075 -81.6919 318° Northwest 267 307 30,000  Level Miami Center
04:53PM 27.4642 -81.7483 319° Northwest 267 307 30,000  Level Miami Center
04:54PM 27.5206 -81.8044 319° Northwest 267 307 30,000  Level Miami Center
04:55PM 27.5692 -81.8533 318° Northwest 262 302 30,000  Level Miami Center
04:56PM 27.6233 -81.9097 317° Northwest 267 307 30,000  Level Miami Center
04:57PM 27.6753 -81.9753 312° West 262 302 30,000  Level Miami Center
04:58PM 27.7275 -82.0361 314° West 262 302 30,000  Level Miami Center
04:59PM 27.7775 -82.0947 314° West 262 302 30,000  Level Miami Center
05:02PM 27.8894 -82.2328 313° West 264 304 30,000  Level Jacksonville Center
05:03PM 27.9586 -82.2700 335° Northwest 254 292 30,000  Level Jacksonville Center
05:04PM 28.0297 -82.3000 340° North 259 298 30,000  Level Jacksonville Center
05:05PM 28.1008 -82.3325 338° Northwest 266 306 30,000  Level Jacksonville Center
05:06PM 28.1719 -82.3675 337° Northwest 272 313 30,000  Level Jacksonville Center
05:07PM 28.2428 -82.4000 338° Northwest 272 313 30,000  Level Jacksonville Center
05:08PM 28.3119 -82.4353 336° Northwest 272 313 30,000  Level Jacksonville Center
05:09PM 28.3850 -82.4678 339° North 272 313 30,000  Level Jacksonville Center
05:10PM 28.4539 -82.4983 339° North 272 313 30,000  Level Jacksonville Center
05:11PM 28.5250 -82.5311 338° Northwest 272 313 30,000  Level Jacksonville Center
05:12PM 28.5961 -82.5664 336° Northwest 272 313 30,000  Level Jacksonville Center
05:13PM 28.6692 -82.6014 337° Northwest 272 313 30,000  Level Jacksonville Center
05:14PM 28.7381 -82.6369 336° Northwest 272 313 30,000  Level Jacksonville Center
05:15PM 28.8072 -82.6697 337° Northwest 272 313 30,000  Level Jacksonville Center
05:16PM 28.8656 -82.7267 319° Northwest 267 307 30,000  Level Jacksonville Center
05:17PM 28.9219 -82.7836 319° Northwest 267 307 30,000  Level Jacksonville Center
05:18PM 28.9764 -82.8403 318° Northwest 267 307 30,000  Level Jacksonville Center
05:19PM 29.0328 -82.8997 317° Northwest 267 307 30,000  Level Jacksonville Center
05:20PM 29.0892 -82.9567 319° Northwest 267 307 30,000  Level Jacksonville Center
05:21PM 29.1453 -83.0161 317° Northwest 267 307 30,000  Level Jacksonville Center
05:22PM 29.2058 -83.0758 319° Northwest 272 313 30,000  Level Jacksonville Center
05:23PM 29.2622 -83.1353 317° Northwest 272 313 30,000  Level Jacksonville Center
05:24PM 29.3206 -83.1950 318° Northwest 272 313 30,000  Level Jacksonville Center
05:25PM 29.3786 -83.2572 317° Northwest 278 320 30,000  Level Jacksonville Center
05:26PM 29.4369 -83.3219 316° Northwest 283 326 30,000  Level Jacksonville Center
05:27PM 29.4972 -83.3842 318° Northwest 283 326 30,000  Level Jacksonville Center
05:28PM 29.5575 -83.4464 318° Northwest 289 333 30,000  Level Jacksonville Center
05:29PM 29.6158 -83.5089 317° Northwest 289 333 30,000  Level Jacksonville Center
05:30PM 29.6761 -83.5692 319° Northwest 289 333 30,000  Level Jacksonville Center
05:31PM 29.7342 -83.6342 316° Northwest 289 333 30,000  Level Jacksonville Center
05:32PM 29.7964 -83.6944 320° Northwest 289 333 30,000  Level Jacksonville Center
05:33PM 29.8522 -83.7569 316° Northwest 289 333 30,000  Level Jacksonville Center
05:34PM 29.9144 -83.8200 319° Northwest 289 333 30,000  Level Jacksonville Center
05:35PM 29.9767 -83.8878 317° Northwest 289 333 30,000  Level Jacksonville Center
05:36PM 30.0367 -83.9506 318° Northwest 289 333 30,000  Level Jacksonville Center
05:37PM 30.0944 -84.0136 317° Northwest 289 333 30,000  Level Jacksonville Center
05:38PM 30.1544 -84.0769 318° Northwest 289 333 30,000  Level Jacksonville Center
05:39PM 30.2144 -84.1400 318° Northwest 294 338 30,000  Level Jacksonville Center
05:40PM 30.2703 -84.2033 316° Northwest 288 331 30,000  Level Jacksonville Center
05:41PM 30.3300 -84.2667 318° Northwest 288 331 30,000  Level Jacksonville Center
05:42PM 30.3900 -84.3303 318° Northwest 288 331 30,000  Level Jacksonville Center
05:43PM 30.4478 -84.3914 318° Northwest 288 331 30,000  Level Jacksonville Center
05:44PM 30.5053 -84.4550 316° Northwest 288 331 30,000  Level Jacksonville Center
05:45PM 30.5611 -84.5161 317° Northwest 288 331 30,000  Level Jacksonville Center
05:46PM 30.6228 -84.5775 319° Northwest 288 331 30,000  Level Jacksonville Center
05:47PM 30.6742 -84.6364 315° West 288 331 30,000  Level Jacksonville Center
05:48PM 30.7297 -84.6978 316° Northwest 288 331 30,000  Level Jacksonville Center
05:49PM 30.7872 -84.7619 316° Northwest 288 331 30,000  Level Jacksonville Center
05:50PM 30.8447 -84.8233 317° Northwest 288 331 30,000  Level Jacksonville Center
05:51PM 30.9022 -84.8875 316° Northwest 288 331 30,000  Level Jacksonville Center
05:52PM 30.9597 -84.9469 318° Northwest 288 331 30,000  Level Jacksonville Center
05:53PM 31.0194 -85.0114 317° Northwest 288 331 30,000  Level Jacksonville Center
05:54PM 31.0808 -85.0806 316° Northwest 288 331 30,000  Level Jacksonville Center
05:55PM 31.1319 -85.1375 316° Northwest 288 331 30,000  Level Jacksonville Center
05:57PM 31.2336 -85.2531 316° Northwest 283 326 30,000  Level Atlanta Center
05:58PM 31.2933 -85.3169 318° Northwest 289 333 30,000  Level Atlanta Center
05:59PM 31.3469 -85.3811 314° West 289 333 30,000  Level Atlanta Center
06:00PM 31.3944 -85.4303 319° Northwest 284 327 30,000  Level Atlanta Center
06:01PM 31.4564 -85.4969 317° Northwest 284 327 30,000  Level Atlanta Center
06:02PM 31.5139 -85.5614 316° Northwest 284 327 30,000  Level Atlanta Center
06:03PM 31.5694 -85.6256 315° West 284 327 30,000  Level Atlanta Center
06:04PM 31.6269 -85.6900 316° Northwest 279 321 30,000  Level Atlanta Center
06:05PM 31.6867 -85.7522 318° Northwest 279 321 30,000  Level Atlanta Center
06:06PM 31.7422 -85.8192 314° West 279 321 30,000  Level Atlanta Center
06:07PM 31.7997 -85.8839 316° Northwest 284 327 30,000  Level Atlanta Center
06:08PM 31.8572 -85.9486 316° Northwest 284 327 30,000  Level Atlanta Center
06:09PM 31.9125 -86.0133 315° West 279 321 30,000  Level Atlanta Center
06:10PM 31.9719 -86.0783 317° Northwest 279 321 30,000  Level Atlanta Center
06:11PM 32.0272 -86.1408 316° Northwest 279 321 30,000  Level Atlanta Center
06:12PM 32.0844 -86.2083 315° West 279 321 30,000  Level Atlanta Center
06:13PM 32.1417 -86.2758 315° West 279 321 30,000  Level Atlanta Center
06:14PM 32.2031 -86.3411 318° Northwest 284 327 30,000  Level Atlanta Center
06:15PM 32.2728 -86.4142 318° Northwest 300 345 30,000  Level Atlanta Center
06:16PM 32.3297 -86.4822 315° West 305 351 30,000  Level Atlanta Center
06:17PM 32.3889 -86.5503 316° Northwest 305 351 30,000  Level Atlanta Center
06:18PM 32.4461 -86.6158 316° Northwest 290 334 30,000  Level Atlanta Center
06:19PM 32.4931 -86.6664 318° Northwest 284 327 30,000  Level Atlanta Center
06:20PM 32.5561 -86.7472 313° West 279 321 30,000  Level Atlanta Center
06:21PM 32.6194 -86.8083 321° Northwest 284 327 30,000  Level Atlanta Center
06:22PM 32.6742 -86.8767 314° West 289 333 30,000  Level Atlanta Center
06:23PM 32.7331 -86.9428 317° Northwest 289 333 30,000  Level Atlanta Center
06:24PM 32.7919 -87.0114 316° Northwest 294 338 30,000  Level Atlanta Center
06:25PM 32.8489 -87.0775 316° Northwest 288 331 30,000  Level Atlanta Center
06:26PM 32.9097 -87.1464 316° Northwest 294 338 30,000  Level Atlanta Center
06:27PM 32.9728 -87.2106 320° Northwest 294 338 30,000  Level Atlanta Center
06:28PM 33.0108 -87.2739 306° West 294 338 30,000  Level Atlanta Center
06:29PM 33.0778 -87.3483 317° Northwest 294 338 30,000  Level Atlanta Center
06:31PM 33.2089 -87.5044 315° West 335 386 30,000  Level Memphis Center
06:32PM 33.2692 -87.5744 316° Northwest 313 360 30,000  Level Memphis Center
06:33PM 33.3269 -87.6447 315° West 306 352 30,000  Level Memphis Center
06:34PM 33.3889 -87.7150 317° Northwest 301 346 30,000  Level Memphis Center
06:35PM 33.4469 -87.7856 315° West 301 346 30,000 -120 Level Memphis Center
06:36PM 33.5067 -87.8583 315° West 296 341 29,800 -600 Descending Memphis Center
06:36PM 33.5322 -87.8825 322° Northwest 304 350 29,200 -1,920 Descending Memphis Center
06:37PM 33.5708 -87.9314 313° West 296 341 27,900 -2,520 Descending Memphis Center
06:37PM 33.6114 -87.9778 316° Northwest 327 376 26,200 -2,640 Descending Memphis Center
06:38PM 33.6350 -88.0094 312° West 310 357 25,300 -2,220 Descending Memphis Center
06:38PM 33.6753 -88.0533 318° Northwest 327 376 24,000 -1,320 Descending Memphis Center
06:39PM 33.6989 -88.0875 310° West 317 365 24,000 -600 Level Memphis Center
06:39PM 33.7417 -88.1339 318° Northwest 315 362 23,400 -1,200 Descending Memphis Center
06:40PM 33.7589 -88.1608 308° West 311 358 22,800 -2,700 Descending Memphis Center
06:40PM 33.8033 -88.2097 318° Northwest 322 371 20,700 -3,240 Descending Memphis Center
06:41PM 33.8228 -88.2344 313° West 319 367 19,600 -3,000 Descending Memphis Center
06:41PM 33.8608 -88.2758 318° Northwest 319 367 18,000 -2,700 Descending Memphis Center
06:42PM 33.8822 -88.3081 309° West 284 327 16,900 -2,940 Descending Memphis Center
06:43PM 33.9397 -88.3767 315° West 284 327 13,800 -3,240 Descending Memphis Center
06:44PM 33.9953 -88.4481 313° West 284 327 10,500 -2,460 Descending Memphis Center
06:45PM 34.0236 -88.5300 293° West 279 321 8,900 -1,620 Descending Memphis Center
06:46PM 34.0497 -88.6022 294° West 255 293 7,300 -1,680 Descending Memphis Center
06:47PM 34.0736 -88.6794 290° West 250 288 5,600 -1,860 Descending Memphis Center
06:48PM 34.0744 -88.7422 271° West 224 258 3,600 -1,620 Descending Memphis Center
06:49PM 34.0919 -88.8019 290° West 206 237 2,400 -840 Descending Memphis Center
06:50PM 34.1500 -88.7708 24° Northeast 136 157 2,000 -240 Descending Memphis Center
06:51PM 34.1794 -88.7931 328° Northwest 136 157 2,000 1,500 Level Memphis Center
06:52PM 34.2111 -88.8175 327° Northwest 136 157 5,000 1,500 Climbing Memphis Center
06:53PM 34.2428 -88.8419 327° Northwest 136 157 5,000  Level Memphis Center
06:54PM 34.2744 -88.8667 327° Northwest 136 157 5,000  Level Memphis Center